Time;durP1;ratioP1;P1;durP2;ratioP2;P2;SDS_P1;SDS_P2;PMS_P1;PMS_P2;Temp;Humidity;BMP_temperature;BMP_pressure;BME280_temperature;BME280_humidity;BME280_pressure;Samples;Min_cycle;Max_cycle;Signal;HPM_P1;HPM_P2
2022/03/08 00:01:10;;;;;;;1.63;0.95;;;;;;;;;;2077891;28;20034;-65
2022/03/08 00:02:28;;;;;;;2.78;1.10;;;;;;;;;;2078197;28;20144;-66
2022/03/08 00:03:47;;;;;;;3.35;1.48;;;;;;;;;;2079150;28;20387;-66
2022/03/08 00:05:06;;;;;;;2.15;1.15;;;;;;;;;;2080147;28;20029;-66
2022/03/08 00:06:26;;;;;;;3.28;1.45;;;;;;;;;;2076984;28;20033;-66
2022/03/08 00:07:46;;;;;;;2.95;1.20;;;;;;;;;;2076374;28;20034;-66
2022/03/08 00:09:06;;;;;;;1.90;1.20;;;;;;;;;;2077954;28;20026;-66
2022/03/08 00:10:25;;;;;;;2.95;1.20;;;;;;;;;;2079918;28;20026;-66
2022/03/08 00:11:44;;;;;;;3.45;1.50;;;;;;;;;;2077896;28;20029;-65
2022/03/08 00:13:04;;;;;;;2.67;1.20;;;;;;;;;;2078205;28;20029;-64
2022/03/08 00:14:22;;;;;;;2.88;1.52;;;;;;;;;;2077675;28;20119;-67
2022/03/08 00:15:41;;;;;;;3.70;1.10;;;;;;;;;;2079768;28;20037;-66
2022/03/08 00:17:01;;;;;;;2.35;1.38;;;;;;;;;;2079353;28;20061;-66
2022/03/08 00:18:20;;;;;;;3.42;1.17;;;;;;;;;;2079364;28;20419;-66
2022/03/08 00:19:39;;;;;;;1.48;1.10;;;;;;;;;;2078857;28;20022;-66
2022/03/08 00:20:58;;;;;;;1.88;1.38;;;;;;;;;;2078965;28;20022;-65
2022/03/08 00:22:17;;;;;;;5.35;1.13;;;;;;;;;;2078368;28;20034;-65
2022/03/08 00:23:36;;;;;;;1.52;1.20;;;;;;;;;;2081403;28;20034;-66
2022/03/08 00:24:55;;;;;;;2.45;1.30;;;;;;;;;;2081084;28;20026;-67
2022/03/08 00:26:15;;;;;;;2.97;1.17;;;;;;;;;;2078756;28;20029;-65
2022/03/08 00:27:35;;;;;;;4.85;1.40;;;;;;;;;;2079496;28;20030;-66
2022/03/08 00:28:53;;;;;;;1.77;1.40;;;;;;;;;;2081601;28;20038;-66
2022/03/08 00:30:17;;;;;;;1.40;1.30;;;;;;;;;;2079953;28;20737;-65
2022/03/08 00:31:35;;;;;;;4.63;1.40;;;;;;;;;;2079946;28;20033;-66
2022/03/08 00:32:54;;;;;;;5.53;1.15;;;;;;;;;;2079719;28;20037;-66
2022/03/08 00:34:13;;;;;;;4.28;1.45;;;;;;;;;;2079821;28;20022;-66
2022/03/08 00:35:32;;;;;;;5.07;1.50;;;;;;;;;;2081992;28;20392;-67
2022/03/08 00:36:51;;;;;;;3.17;1.40;;;;;;;;;;2080620;28;20033;-67
2022/03/08 00:38:10;;;;;;;1.48;1.30;;;;;;;;;;2080363;28;20037;-66
2022/03/08 00:39:28;;;;;;;5.10;1.50;;;;;;;;;;2080977;28;20038;-66
2022/03/08 00:40:47;;;;;;;3.65;1.13;;;;;;;;;;2080856;28;20033;-67
2022/03/08 00:42:11;;;;;;;3.03;1.30;;;;;;;;;;2080004;28;20030;-68
2022/03/08 00:43:30;;;;;;;5.78;1.58;;;;;;;;;;2080403;28;20037;-66
2022/03/08 00:44:49;;;;;;;2.80;1.33;;;;;;;;;;2081191;28;20033;-65
2022/03/08 00:46:08;;;;;;;3.42;1.20;;;;;;;;;;2081897;28;20041;-66
2022/03/08 00:47:27;;;;;;;3.15;1.08;;;;;;;;;;2081579;28;20030;-68
2022/03/08 00:48:46;;;;;;;1.63;1.02;;;;;;;;;;2079519;28;20061;-66
2022/03/08 00:50:07;;;;;;;1.65;1.20;;;;;;;;;;2081198;28;20030;-67
2022/03/08 00:51:26;;;;;;;1.30;1.10;;;;;;;;;;2078678;28;20037;-67
2022/03/08 00:52:45;;;;;;;1.65;1.05;;;;;;;;;;2081756;28;20037;-66
2022/03/08 00:54:04;;;;;;;4.20;0.93;;;;;;;;;;2081525;28;20034;-67
2022/03/08 00:55:24;;;;;;;4.30;1.00;;;;;;;;;;2080383;28;20033;-66
2022/03/08 00:56:42;;;;;;;2.03;1.45;;;;;;;;;;2081476;28;20030;-67
2022/03/08 00:58:03;;;;;;;3.88;1.13;;;;;;;;;;2079511;28;20492;-66
2022/03/08 00:59:22;;;;;;;3.28;1.40;;;;;;;;;;2080914;28;20029;-66
2022/03/08 01:00:42;;;;;;;3.72;1.27;;;;;;;;;;2081143;28;20097;-67
2022/03/08 01:02:00;;;;;;;2.58;1.20;;;;;;;;;;2080292;28;20061;-66
2022/03/08 01:03:19;;;;;;;5.53;1.05;;;;;;;;;;2080381;28;20045;-66
2022/03/08 01:04:38;;;;;;;2.08;0.98;;;;;;;;;;2079907;28;20400;-66
2022/03/08 01:05:58;;;;;;;2.05;1.20;;;;;;;;;;2080371;28;20112;-67
2022/03/08 01:07:17;;;;;;;3.13;1.10;;;;;;;;;;2082071;28;20510;-67
2022/03/08 01:08:36;;;;;;;1.40;0.90;;;;;;;;;;2079811;28;20033;-66
2022/03/08 01:09:54;;;;;;;1.25;1.10;;;;;;;;;;2080628;28;20456;-66
2022/03/08 01:11:13;;;;;;;1.15;1.05;;;;;;;;;;2079392;28;20033;-67
2022/03/08 01:12:32;;;;;;;2.80;1.20;;;;;;;;;;2078650;28;20033;-67
2022/03/08 01:13:51;;;;;;;1.55;1.00;;;;;;;;;;2080718;28;20546;-67
2022/03/08 01:15:10;;;;;;;2.75;1.20;;;;;;;;;;2081345;28;20061;-65
2022/03/08 01:16:29;;;;;;;4.13;1.15;;;;;;;;;;2081525;28;20037;-65
2022/03/08 01:17:48;;;;;;;1.73;1.20;;;;;;;;;;2077276;28;20112;-65
2022/03/08 01:19:08;;;;;;;1.92;1.27;;;;;;;;;;2079110;28;20037;-65
2022/03/08 01:20:26;;;;;;;1.92;1.10;;;;;;;;;;2078593;28;20037;-65
2022/03/08 01:21:45;;;;;;;2.20;1.40;;;;;;;;;;2078730;28;20021;-65
2022/03/08 01:23:04;;;;;;;2.13;1.30;;;;;;;;;;2081367;28;20135;-65
2022/03/08 01:24:23;;;;;;;3.70;1.50;;;;;;;;;;2079263;28;20042;-66
2022/03/08 01:25:42;;;;;;;2.50;1.10;;;;;;;;;;2080565;28;20030;-65
2022/03/08 01:27:01;;;;;;;1.70;1.35;;;;;;;;;;2080087;28;20025;-66
2022/03/08 01:28:20;;;;;;;1.33;1.20;;;;;;;;;;2075643;28;20026;-65
2022/03/08 01:29:39;;;;;;;3.58;1.35;;;;;;;;;;2075764;28;20041;-65
2022/03/08 01:30:58;;;;;;;1.60;1.50;;;;;;;;;;2081762;28;20042;-64
2022/03/08 01:32:17;;;;;;;4.82;1.20;;;;;;;;;;2080933;28;20037;-65
2022/03/08 01:33:36;;;;;;;5.07;1.30;;;;;;;;;;2079600;28;20034;-65
2022/03/08 01:34:55;;;;;;;1.75;1.48;;;;;;;;;;2078891;28;20029;-65
2022/03/08 01:36:14;;;;;;;1.35;1.17;;;;;;;;;;2081120;28;20116;-65
2022/03/08 01:37:33;;;;;;;2.03;1.27;;;;;;;;;;2079680;28;20042;-65
2022/03/08 01:38:53;;;;;;;3.08;1.95;;;;;;;;;;2078866;28;20050;-65
2022/03/08 01:40:15;;;;;;;2.60;1.50;;;;;;;;;;2080863;28;20025;-65
2022/03/08 01:41:33;;;;;;;3.28;1.58;;;;;;;;;;2079013;28;20037;-64
2022/03/08 01:42:52;;;;;;;1.58;1.10;;;;;;;;;;2080850;28;20100;-64
2022/03/08 01:44:12;;;;;;;2.63;1.30;;;;;;;;;;2079733;28;20029;-65
2022/03/08 01:45:33;;;;;;;2.25;1.27;;;;;;;;;;2080075;28;20058;-65
2022/03/08 01:46:51;;;;;;;4.00;1.45;;;;;;;;;;2076418;28;20507;-66
2022/03/08 01:48:10;;;;;;;3.25;1.38;;;;;;;;;;2079393;28;20037;-65
2022/03/08 01:49:29;;;;;;;4.70;1.17;;;;;;;;;;2079758;28;20041;-65
2022/03/08 01:50:48;;;;;;;2.30;1.10;;;;;;;;;;2081479;28;20575;-65
2022/03/08 01:52:07;;;;;;;1.30;1.20;;;;;;;;;;2078233;28;20030;-65
2022/03/08 01:53:26;;;;;;;3.30;1.58;;;;;;;;;;2080826;28;20038;-67
2022/03/08 01:54:45;;;;;;;1.48;1.23;;;;;;;;;;2079941;28;20116;-65
2022/03/08 01:56:04;;;;;;;2.67;1.25;;;;;;;;;;2080751;28;20484;-65
2022/03/08 01:57:25;;;;;;;2.53;1.23;;;;;;;;;;2079802;28;20029;-66
2022/03/08 01:58:44;;;;;;;1.50;1.40;;;;;;;;;;2079051;28;20041;-66
2022/03/08 02:00:07;;;;;;;4.95;1.63;;;;;;;;;;2080169;28;20037;-66
2022/03/08 02:01:26;;;;;;;1.65;1.33;;;;;;;;;;2080425;28;20060;-67
2022/03/08 02:02:45;;;;;;;2.90;1.33;;;;;;;;;;2080042;28;20480;-66
2022/03/08 02:04:04;;;;;;;1.67;1.10;;;;;;;;;;2080008;28;20037;-66
2022/03/08 02:05:23;;;;;;;4.70;1.45;;;;;;;;;;2076410;28;20046;-65
2022/03/08 02:06:44;;;;;;;1.20;1.10;;;;;;;;;;2077188;28;20033;-65
2022/03/08 02:08:03;;;;;;;3.17;1.30;;;;;;;;;;2079475;28;20029;-65
2022/03/08 02:09:22;;;;;;;4.35;1.48;;;;;;;;;;2079816;28;20045;-66
2022/03/08 02:10:41;;;;;;;3.30;1.63;;;;;;;;;;2079254;28;20038;-66
2022/03/08 02:12:00;;;;;;;6.68;1.73;;;;;;;;;;2076760;28;20423;-66
2022/03/08 02:13:20;;;;;;;2.15;1.40;;;;;;;;;;2079262;28;20061;-66
2022/03/08 02:14:39;;;;;;;5.75;1.38;;;;;;;;;;2078620;28;20038;-65
2022/03/08 02:15:58;;;;;;;1.90;1.27;;;;;;;;;;2079161;28;20034;-66
2022/03/08 02:17:17;;;;;;;2.28;1.60;;;;;;;;;;2078984;28;20065;-66
2022/03/08 02:18:36;;;;;;;1.70;1.25;;;;;;;;;;2080180;28;20041;-66
2022/03/08 02:19:56;;;;;;;1.83;1.48;;;;;;;;;;2079461;28;20116;-66
2022/03/08 02:21:15;;;;;;;3.67;1.40;;;;;;;;;;2080535;28;20030;-64
2022/03/08 02:22:34;;;;;;;5.93;1.35;;;;;;;;;;2078457;28;20396;-67
2022/03/08 02:23:53;;;;;;;2.63;1.40;;;;;;;;;;2080582;28;20030;-66
2022/03/08 02:25:13;;;;;;;3.95;1.17;;;;;;;;;;2079782;28;20030;-66
2022/03/08 02:26:32;;;;;;;3.05;1.30;;;;;;;;;;2077775;28;20388;-66
2022/03/08 02:27:52;;;;;;;2.40;1.45;;;;;;;;;;2079392;28;20064;-66
2022/03/08 02:29:11;;;;;;;7.95;1.70;;;;;;;;;;2080689;28;20033;-66
2022/03/08 02:30:30;;;;;;;5.00;1.60;;;;;;;;;;2079357;28;20045;-66
2022/03/08 02:31:49;;;;;;;2.08;1.20;;;;;;;;;;2078864;28;20065;-66
2022/03/08 02:33:09;;;;;;;2.03;1.40;;;;;;;;;;2075317;28;20055;-66
2022/03/08 02:34:27;;;;;;;1.90;1.33;;;;;;;;;;2078917;28;20030;-66
2022/03/08 02:35:47;;;;;;;5.43;1.70;;;;;;;;;;2081236;28;20069;-65
2022/03/08 02:37:11;;;;;;;3.60;1.45;;;;;;;;;;2078995;28;20025;-66
2022/03/08 02:38:30;;;;;;;1.88;1.25;;;;;;;;;;2078574;28;20112;-66
2022/03/08 02:39:49;;;;;;;3.58;1.38;;;;;;;;;;2077815;28;20018;-67
2022/03/08 02:41:08;;;;;;;2.38;1.20;;;;;;;;;;2077681;28;20021;-66
2022/03/08 02:42:27;;;;;;;5.15;1.73;;;;;;;;;;2079778;28;20138;-66
2022/03/08 02:43:46;;;;;;;1.88;1.45;;;;;;;;;;2075751;28;20066;-66
2022/03/08 02:45:06;;;;;;;2.50;1.40;;;;;;;;;;2079245;28;20034;-66
2022/03/08 02:46:25;;;;;;;3.30;1.20;;;;;;;;;;2079988;28;20037;-66
2022/03/08 02:47:45;;;;;;;1.63;1.40;;;;;;;;;;2079029;28;20029;-66
2022/03/08 02:49:04;;;;;;;3.45;1.40;;;;;;;;;;2079245;28;20038;-66
2022/03/08 02:50:23;;;;;;;1.27;1.17;;;;;;;;;;2078086;28;20042;-67
2022/03/08 02:51:42;;;;;;;3.40;1.17;;;;;;;;;;2079548;28;20391;-66
2022/03/08 02:53:01;;;;;;;1.95;1.67;;;;;;;;;;2081237;28;20388;-67
2022/03/08 02:54:20;;;;;;;4.38;1.92;;;;;;;;;;2080620;28;20037;-66
2022/03/08 02:55:39;;;;;;;1.88;1.42;;;;;;;;;;2078384;28;20456;-66
2022/03/08 02:56:58;;;;;;;3.08;1.52;;;;;;;;;;2079847;28;20396;-65
2022/03/08 02:58:17;;;;;;;1.38;1.15;;;;;;;;;;2079431;28;20257;-68
2022/03/08 02:59:36;;;;;;;1.80;1.45;;;;;;;;;;2080662;28;20029;-66
2022/03/08 03:00:55;;;;;;;1.77;1.25;;;;;;;;;;2080218;28;20037;-66
2022/03/08 03:02:14;;;;;;;1.83;1.50;;;;;;;;;;2079172;28;20371;-67
2022/03/08 03:03:33;;;;;;;2.03;1.25;;;;;;;;;;2077696;28;20033;-66
2022/03/08 03:04:52;;;;;;;2.00;1.48;;;;;;;;;;2079985;28;20047;-67
2022/03/08 03:06:11;;;;;;;3.58;1.38;;;;;;;;;;2079696;28;20033;-66
2022/03/08 03:07:30;;;;;;;5.22;1.83;;;;;;;;;;2079424;28;20025;-66
2022/03/08 03:08:49;;;;;;;1.70;1.10;;;;;;;;;;2079034;28;20026;-67
2022/03/08 03:10:12;;;;;;;2.20;1.15;;;;;;;;;;2078582;28;20401;-66
2022/03/08 03:11:31;;;;;;;3.95;1.25;;;;;;;;;;2079076;28;20422;-68
2022/03/08 03:12:51;;;;;;;1.55;1.30;;;;;;;;;;2079717;28;20030;-66
2022/03/08 03:14:10;;;;;;;3.92;1.52;;;;;;;;;;2080330;28;20392;-66
2022/03/08 03:15:29;;;;;;;1.73;1.17;;;;;;;;;;2078780;28;20034;-66
2022/03/08 03:16:48;;;;;;;2.42;1.13;;;;;;;;;;2075745;28;20037;-66
2022/03/08 03:18:08;;;;;;;3.50;1.70;;;;;;;;;;2074766;28;20026;-66
2022/03/08 03:19:27;;;;;;;2.10;1.45;;;;;;;;;;2079896;28;20033;-66
2022/03/08 03:20:46;;;;;;;4.57;1.60;;;;;;;;;;2076691;28;20104;-66
2022/03/08 03:22:05;;;;;;;4.15;1.40;;;;;;;;;;2079761;28;20030;-67
2022/03/08 03:23:24;;;;;;;2.63;1.50;;;;;;;;;;2079878;28;20033;-68
2022/03/08 03:24:44;;;;;;;3.25;1.38;;;;;;;;;;2079699;28;20026;-66
2022/03/08 03:26:03;;;;;;;2.40;1.35;;;;;;;;;;2077927;28;20021;-67
2022/03/08 03:27:21;;;;;;;4.10;1.73;;;;;;;;;;2078883;28;20395;-66
2022/03/08 03:28:40;;;;;;;10.32;1.50;;;;;;;;;;2080194;28;20037;-67
2022/03/08 03:29:59;;;;;;;3.25;1.58;;;;;;;;;;2080375;28;20136;-67
2022/03/08 03:31:18;;;;;;;1.17;1.08;;;;;;;;;;2078632;28;20118;-66
2022/03/08 03:32:37;;;;;;;4.60;1.10;;;;;;;;;;2077722;28;20064;-66
2022/03/08 03:33:56;;;;;;;2.80;1.55;;;;;;;;;;2080160;28;20025;-66
2022/03/08 03:35:15;;;;;;;2.65;1.13;;;;;;;;;;2080406;28;20391;-66
2022/03/08 03:36:34;;;;;;;1.98;1.20;;;;;;;;;;2076929;28;20026;-67
2022/03/08 03:37:53;;;;;;;5.75;1.42;;;;;;;;;;2074977;28;20491;-66
2022/03/08 03:39:12;;;;;;;1.90;1.33;;;;;;;;;;2078562;28;20022;-67
2022/03/08 03:40:31;;;;;;;1.67;1.17;;;;;;;;;;2080285;28;20030;-67
2022/03/08 03:41:50;;;;;;;1.77;1.25;;;;;;;;;;2079082;28;20033;-67
2022/03/08 03:43:08;;;;;;;2.38;1.38;;;;;;;;;;2077696;28;20099;-66
2022/03/08 03:44:27;;;;;;;1.58;1.13;;;;;;;;;;2079303;28;20026;-68
2022/03/08 03:45:46;;;;;;;1.42;1.20;;;;;;;;;;2079012;28;20045;-67
2022/03/08 03:47:05;;;;;;;2.55;1.50;;;;;;;;;;2079420;28;20552;-66
2022/03/08 03:48:24;;;;;;;1.63;1.25;;;;;;;;;;2079771;28;20068;-66
2022/03/08 03:49:43;;;;;;;4.18;1.33;;;;;;;;;;2078049;28;20406;-67
2022/03/08 03:51:02;;;;;;;7.00;1.92;;;;;;;;;;2078239;28;20053;-67
2022/03/08 03:52:21;;;;;;;2.22;1.02;;;;;;;;;;2077617;28;20049;-67
2022/03/08 03:53:41;;;;;;;2.65;1.20;;;;;;;;;;2079699;28;20549;-67
2022/03/08 03:55:01;;;;;;;2.03;1.63;;;;;;;;;;2079365;28;20041;-66
2022/03/08 03:56:20;;;;;;;2.47;1.48;;;;;;;;;;2079450;28;20057;-67
2022/03/08 03:57:39;;;;;;;4.03;1.60;;;;;;;;;;2077273;28;20021;-67
2022/03/08 03:58:59;;;;;;;3.25;1.10;;;;;;;;;;2078901;28;20072;-67
2022/03/08 04:00:17;;;;;;;3.83;1.40;;;;;;;;;;2079038;28;20045;-66
2022/03/08 04:01:37;;;;;;;2.45;1.42;;;;;;;;;;2078469;28;20038;-68
2022/03/08 04:02:56;;;;;;;1.23;1.10;;;;;;;;;;2079638;28;20022;-67
2022/03/08 04:04:15;;;;;;;1.60;1.25;;;;;;;;;;2080708;28;20022;-67
2022/03/08 04:05:34;;;;;;;2.03;1.20;;;;;;;;;;2079170;28;20025;-67
2022/03/08 04:06:53;;;;;;;3.28;1.40;;;;;;;;;;2078598;28;20472;-67
2022/03/08 04:08:12;;;;;;;6.78;1.80;;;;;;;;;;2078099;28;20030;-67
2022/03/08 04:09:31;;;;;;;3.20;1.25;;;;;;;;;;2079881;28;20034;-67
2022/03/08 04:10:51;;;;;;;1.98;1.50;;;;;;;;;;2079986;28;20069;-67
2022/03/08 04:12:10;;;;;;;2.85;1.33;;;;;;;;;;2077384;28;20025;-67
2022/03/08 04:13:29;;;;;;;1.88;1.40;;;;;;;;;;2078338;28;20029;-65
2022/03/08 04:14:48;;;;;;;1.92;1.27;;;;;;;;;;2079715;28;20045;-67
2022/03/08 04:16:07;;;;;;;2.63;1.15;;;;;;;;;;2081064;28;20037;-65
2022/03/08 04:17:25;;;;;;;2.95;1.30;;;;;;;;;;2080023;28;20034;-67
2022/03/08 04:18:44;;;;;;;3.10;2.00;;;;;;;;;;2080384;28;20033;-67
2022/03/08 04:20:04;;;;;;;2.38;1.70;;;;;;;;;;2077343;28;20450;-67
2022/03/08 04:21:23;;;;;;;1.80;1.60;;;;;;;;;;2078670;28;20108;-67
2022/03/08 04:22:42;;;;;;;2.08;1.35;;;;;;;;;;2079513;28;20122;-67
2022/03/08 04:24:01;;;;;;;4.38;1.50;;;;;;;;;;2079313;28;20021;-67
2022/03/08 04:25:20;;;;;;;1.55;1.42;;;;;;;;;;2081014;28;20026;-68
2022/03/08 04:26:39;;;;;;;2.58;1.13;;;;;;;;;;2078420;28;20030;-66
2022/03/08 04:27:58;;;;;;;4.88;1.45;;;;;;;;;;2079454;28;20038;-67
2022/03/08 04:29:17;;;;;;;4.63;1.52;;;;;;;;;;2079395;28;20104;-66
2022/03/08 04:30:36;;;;;;;1.90;1.60;;;;;;;;;;2080423;28;20033;-65
2022/03/08 04:31:55;;;;;;;4.97;1.40;;;;;;;;;;2077683;28;20022;-66
2022/03/08 04:33:14;;;;;;;3.63;1.30;;;;;;;;;;2079837;28;20030;-66
2022/03/08 04:34:33;;;;;;;1.88;1.35;;;;;;;;;;2079996;28;20468;-67
2022/03/08 04:35:52;;;;;;;3.25;1.73;;;;;;;;;;2080356;28;20392;-66
2022/03/08 04:37:11;;;;;;;4.20;1.42;;;;;;;;;;2078551;28;20100;-65
2022/03/08 04:38:29;;;;;;;4.00;1.40;;;;;;;;;;2078645;28;20559;-66
2022/03/08 04:39:48;;;;;;;2.05;1.52;;;;;;;;;;2073984;28;20704;-66
2022/03/08 04:41:07;;;;;;;4.82;1.80;;;;;;;;;;2078336;28;20508;-66
2022/03/08 04:42:26;;;;;;;2.40;1.42;;;;;;;;;;2077953;28;20065;-66
2022/03/08 04:43:46;;;;;;;1.58;1.35;;;;;;;;;;2080040;28;20025;-67
2022/03/08 04:45:06;;;;;;;3.20;1.30;;;;;;;;;;2079550;28;20108;-65
2022/03/08 04:46:24;;;;;;;1.77;1.42;;;;;;;;;;2079075;28;20033;-66
2022/03/08 04:47:43;;;;;;;3.30;1.50;;;;;;;;;;2078946;28;20034;-65
2022/03/08 04:49:03;;;;;;;3.22;1.30;;;;;;;;;;2078065;28;20483;-66
2022/03/08 04:50:21;;;;;;;2.05;1.70;;;;;;;;;;2079418;28;20068;-65
2022/03/08 04:51:41;;;;;;;3.72;1.55;;;;;;;;;;2078712;28;20029;-66
2022/03/08 04:52:59;;;;;;;3.17;1.60;;;;;;;;;;2080368;28;20029;-66
2022/03/08 04:54:18;;;;;;;2.90;1.60;;;;;;;;;;2079913;28;20030;-66
2022/03/08 04:55:37;;;;;;;1.98;1.50;;;;;;;;;;2080050;28;20217;-66
2022/03/08 04:56:56;;;;;;;4.72;1.42;;;;;;;;;;2078035;28;20025;-66
2022/03/08 04:58:15;;;;;;;2.67;1.58;;;;;;;;;;2079701;28;20034;-66
2022/03/08 04:59:34;;;;;;;5.63;2.08;;;;;;;;;;2078459;28;20037;-66
2022/03/08 05:00:53;;;;;;;4.80;1.75;;;;;;;;;;2074743;28;20029;-66
2022/03/08 05:02:12;;;;;;;5.00;1.30;;;;;;;;;;2075720;28;20037;-66
2022/03/08 05:03:31;;;;;;;2.45;1.70;;;;;;;;;;2078731;28;20112;-65
2022/03/08 05:04:50;;;;;;;2.60;1.70;;;;;;;;;;2079911;28;20113;-66
2022/03/08 05:06:09;;;;;;;3.40;1.60;;;;;;;;;;2078710;28;20026;-66
2022/03/08 05:07:28;;;;;;;1.98;1.30;;;;;;;;;;2077899;28;20038;-66
2022/03/08 05:08:47;;;;;;;4.18;1.88;;;;;;;;;;2081270;28;20396;-66
2022/03/08 05:10:07;;;;;;;3.60;1.40;;;;;;;;;;2080268;28;20033;-67
2022/03/08 05:11:26;;;;;;;3.20;1.60;;;;;;;;;;2081763;28;20029;-66
2022/03/08 05:12:46;;;;;;;2.60;1.50;;;;;;;;;;2080077;28;20117;-66
2022/03/08 05:14:05;;;;;;;1.70;1.60;;;;;;;;;;2080275;28;20034;-66
2022/03/08 05:15:24;;;;;;;1.98;1.40;;;;;;;;;;2079175;28;20037;-67
2022/03/08 05:16:43;;;;;;;4.70;1.83;;;;;;;;;;2081208;28;20108;-66
2022/03/08 05:18:02;;;;;;;3.17;1.65;;;;;;;;;;2080811;28;20033;-65
2022/03/08 05:19:21;;;;;;;3.40;1.60;;;;;;;;;;2080578;28;20033;-66
2022/03/08 05:20:40;;;;;;;4.03;1.75;;;;;;;;;;2078874;28;20693;-66
2022/03/08 05:21:58;;;;;;;3.55;1.88;;;;;;;;;;2079884;28;20112;-66
2022/03/08 05:23:18;;;;;;;2.10;1.60;;;;;;;;;;2080478;28;20679;-66
2022/03/08 05:24:36;;;;;;;6.22;1.60;;;;;;;;;;2079916;28;20398;-67
2022/03/08 05:25:55;;;;;;;2.63;1.92;;;;;;;;;;2079096;28;20034;-68
2022/03/08 05:27:14;;;;;;;3.63;1.95;;;;;;;;;;2080209;28;20459;-67
2022/03/08 05:28:33;;;;;;;3.47;1.80;;;;;;;;;;2079380;28;20045;-69
2022/03/08 05:29:52;;;;;;;2.80;1.63;;;;;;;;;;2080194;28;20053;-68
2022/03/08 05:31:11;;;;;;;5.95;1.77;;;;;;;;;;2068243;28;20038;-66
2022/03/08 05:32:30;;;;;;;2.05;1.35;;;;;;;;;;2076335;28;20053;-67
2022/03/08 05:33:49;;;;;;;2.05;1.50;;;;;;;;;;2079777;28;20037;-67
2022/03/08 05:35:08;;;;;;;4.53;1.48;;;;;;;;;;2077422;28;20037;-66
2022/03/08 05:36:27;;;;;;;3.92;2.05;;;;;;;;;;2080770;28;20495;-66
2022/03/08 05:37:46;;;;;;;3.40;1.50;;;;;;;;;;2079467;28;20038;-66
2022/03/08 05:39:05;;;;;;;4.70;1.67;;;;;;;;;;2078201;28;20033;-67
2022/03/08 05:40:24;;;;;;;4.30;1.90;;;;;;;;;;2080140;28;20486;-67
2022/03/08 05:41:42;;;;;;;3.65;1.58;;;;;;;;;;2079078;28;20041;-66
2022/03/08 05:43:01;;;;;;;2.70;2.10;;;;;;;;;;2078354;28;20053;-66
2022/03/08 05:44:20;;;;;;;1.63;1.52;;;;;;;;;;2080535;28;20037;-67
2022/03/08 05:45:39;;;;;;;3.10;1.60;;;;;;;;;;2080902;28;20037;-67
2022/03/08 05:46:58;;;;;;;6.85;1.88;;;;;;;;;;2080200;28;20030;-66
2022/03/08 05:48:17;;;;;;;2.67;1.50;;;;;;;;;;2078512;28;20033;-67
2022/03/08 05:49:36;;;;;;;2.65;1.65;;;;;;;;;;2077262;28;20380;-67
2022/03/08 05:50:55;;;;;;;3.92;1.60;;;;;;;;;;2081086;28;20411;-66
2022/03/08 05:52:14;;;;;;;2.03;1.60;;;;;;;;;;2074891;28;20029;-66
2022/03/08 05:53:32;;;;;;;3.90;1.80;;;;;;;;;;2077946;28;20061;-69
2022/03/08 05:54:51;;;;;;;3.38;1.60;;;;;;;;;;2076055;28;20499;-67
2022/03/08 05:56:11;;;;;;;6.10;1.63;;;;;;;;;;2079257;28;20033;-67
2022/03/08 05:57:30;;;;;;;2.22;1.60;;;;;;;;;;2081041;28;20033;-68
2022/03/08 05:58:49;;;;;;;6.88;1.90;;;;;;;;;;2079441;28;20069;-68
2022/03/08 06:00:08;;;;;;;3.88;1.58;;;;;;;;;;2077930;28;20026;-67
2022/03/08 06:01:27;;;;;;;7.38;1.75;;;;;;;;;;2079499;28;20148;-67
2022/03/08 06:02:47;;;;;;;5.78;1.52;;;;;;;;;;2079210;28;20030;-68
2022/03/08 06:04:06;;;;;;;5.07;1.48;;;;;;;;;;2080744;28;20392;-68
2022/03/08 06:05:24;;;;;;;3.05;1.65;;;;;;;;;;2080390;28;20033;-68
2022/03/08 06:06:43;;;;;;;2.30;1.80;;;;;;;;;;2079396;28;20037;-67
2022/03/08 06:08:03;;;;;;;3.90;1.90;;;;;;;;;;2080117;28;20496;-67
2022/03/08 06:09:22;;;;;;;7.78;1.67;;;;;;;;;;2080650;28;20041;-68
2022/03/08 06:10:41;;;;;;;3.75;1.75;;;;;;;;;;2078702;28;20041;-68
2022/03/08 06:12:00;;;;;;;4.22;1.90;;;;;;;;;;2077607;28;20038;-68
2022/03/08 06:13:19;;;;;;;2.85;1.60;;;;;;;;;;2075068;28;20120;-68
2022/03/08 06:14:38;;;;;;;3.72;1.60;;;;;;;;;;2079312;28;20120;-67
2022/03/08 06:15:57;;;;;;;3.03;1.60;;;;;;;;;;2078285;28;20472;-68
2022/03/08 06:17:16;;;;;;;5.93;1.60;;;;;;;;;;2079084;28;20025;-68
2022/03/08 06:18:35;;;;;;;2.85;1.80;;;;;;;;;;2077778;28;20033;-67
2022/03/08 06:19:54;;;;;;;2.90;1.80;;;;;;;;;;2078839;28;20029;-68
2022/03/08 06:21:13;;;;;;;3.20;2.20;;;;;;;;;;2080037;28;20022;-69
2022/03/08 06:22:32;;;;;;;6.45;2.00;;;;;;;;;;2076810;28;20484;-68
2022/03/08 06:23:51;;;;;;;7.72;1.85;;;;;;;;;;2077779;28;20037;-68
2022/03/08 06:25:09;;;;;;;3.17;1.60;;;;;;;;;;2079176;28;20105;-68
2022/03/08 06:26:29;;;;;;;5.45;1.90;;;;;;;;;;2077409;28;20041;-68
2022/03/08 06:27:48;;;;;;;2.33;1.60;;;;;;;;;;2077396;28;20437;-68
2022/03/08 06:29:08;;;;;;;4.30;1.55;;;;;;;;;;2079098;28;20120;-68
2022/03/08 06:30:27;;;;;;;1.73;1.55;;;;;;;;;;2080768;28;20125;-68
2022/03/08 06:31:45;;;;;;;4.90;1.83;;;;;;;;;;2078195;28;20038;-67
2022/03/08 06:33:04;;;;;;;8.07;1.80;;;;;;;;;;2079725;28;20022;-68
2022/03/08 06:34:23;;;;;;;3.38;1.70;;;;;;;;;;2078818;28;20037;-69
2022/03/08 06:35:42;;;;;;;5.53;1.98;;;;;;;;;;2073530;28;20034;-68
2022/03/08 06:37:01;;;;;;;6.20;1.90;;;;;;;;;;2071340;28;20034;-68
2022/03/08 06:38:20;;;;;;;7.07;2.00;;;;;;;;;;2077451;28;20057;-67
2022/03/08 06:39:39;;;;;;;3.65;1.67;;;;;;;;;;2078345;28;20029;-68
2022/03/08 06:40:58;;;;;;;2.22;1.55;;;;;;;;;;2077518;28;20393;-68
2022/03/08 06:42:18;;;;;;;3.25;1.83;;;;;;;;;;2077380;28;20025;-68
2022/03/08 06:43:37;;;;;;;1.65;1.45;;;;;;;;;;2077898;28;20022;-68
2022/03/08 06:44:56;;;;;;;2.78;1.77;;;;;;;;;;2077800;28;20061;-68
2022/03/08 06:46:15;;;;;;;5.13;1.92;;;;;;;;;;2077498;28;20029;-68
2022/03/08 06:47:35;;;;;;;4.50;1.50;;;;;;;;;;2074783;28;20030;-69
2022/03/08 06:48:54;;;;;;;2.45;1.80;;;;;;;;;;2077221;28;20033;-66
2022/03/08 06:50:13;;;;;;;5.07;1.90;;;;;;;;;;2077761;28;20029;-68
2022/03/08 06:51:32;;;;;;;3.40;1.98;;;;;;;;;;2077064;28;20045;-67
2022/03/08 06:52:51;;;;;;;3.45;1.92;;;;;;;;;;2076454;28;20037;-67
2022/03/08 06:54:10;;;;;;;5.15;1.77;;;;;;;;;;2076234;28;20038;-68
2022/03/08 06:55:29;;;;;;;3.45;2.10;;;;;;;;;;2077669;28;20033;-66
2022/03/08 06:56:48;;;;;;;7.40;1.88;;;;;;;;;;2079087;28;20059;-68
2022/03/08 06:58:07;;;;;;;7.82;1.85;;;;;;;;;;2077731;28;20120;-68
2022/03/08 06:59:26;;;;;;;6.85;1.98;;;;;;;;;;2075227;28;20025;-67
2022/03/08 07:00:45;;;;;;;6.00;1.88;;;;;;;;;;2075000;28;20030;-66
2022/03/08 07:02:04;;;;;;;6.38;2.25;;;;;;;;;;2075017;28;20428;-66
2022/03/08 07:03:23;;;;;;;5.82;1.85;;;;;;;;;;2080489;28;20037;-66
2022/03/08 07:04:42;;;;;;;4.15;1.90;;;;;;;;;;2079797;28;20062;-67
2022/03/08 07:06:01;;;;;;;3.15;1.67;;;;;;;;;;2079315;28;20029;-67
2022/03/08 07:07:20;;;;;;;3.72;2.03;;;;;;;;;;2079065;28;20025;-67
2022/03/08 07:08:39;;;;;;;2.53;1.77;;;;;;;;;;2078481;28;20029;-66
2022/03/08 07:09:58;;;;;;;5.15;2.10;;;;;;;;;;2079253;28;20116;-67
2022/03/08 07:11:17;;;;;;;1.92;1.70;;;;;;;;;;2080018;28;20025;-67
2022/03/08 07:12:36;;;;;;;7.88;2.53;;;;;;;;;;2078319;28;20034;-67
2022/03/08 07:13:55;;;;;;;3.13;1.80;;;;;;;;;;2078368;28;20562;-66
2022/03/08 07:15:14;;;;;;;4.65;2.15;;;;;;;;;;2080055;28;20033;-66
2022/03/08 07:16:33;;;;;;;5.50;2.45;;;;;;;;;;2078966;28;20475;-66
2022/03/08 07:17:52;;;;;;;10.88;2.10;;;;;;;;;;2078485;28;20476;-66
2022/03/08 07:19:12;;;;;;;6.63;2.30;;;;;;;;;;2079421;28;20029;-66
2022/03/08 07:20:31;;;;;;;3.88;2.00;;;;;;;;;;2080210;28;20060;-67
2022/03/08 07:21:50;;;;;;;4.00;2.30;;;;;;;;;;2079522;28;20026;-66
2022/03/08 07:23:09;;;;;;;5.72;2.22;;;;;;;;;;2078475;28;20017;-67
2022/03/08 07:24:28;;;;;;;6.90;2.50;;;;;;;;;;2075724;28;20029;-66
2022/03/08 07:25:47;;;;;;;6.30;1.92;;;;;;;;;;2080069;28;20037;-66
2022/03/08 07:27:08;;;;;;;7.32;2.33;;;;;;;;;;2070857;28;20026;-67
2022/03/08 07:28:27;;;;;;;8.15;2.40;;;;;;;;;;2076834;28;20025;-67
2022/03/08 07:29:47;;;;;;;3.88;2.30;;;;;;;;;;2077482;28;20041;-68
2022/03/08 07:31:06;;;;;;;10.25;2.20;;;;;;;;;;2077285;28;20026;-68
2022/03/08 07:32:25;;;;;;;6.88;2.10;;;;;;;;;;2073369;28;20029;-68
2022/03/08 07:33:44;;;;;;;3.42;1.95;;;;;;;;;;2075868;28;20116;-68
2022/03/08 07:35:05;;;;;;;16.48;2.30;;;;;;;;;;2078060;28;20037;-66
2022/03/08 07:36:24;;;;;;;5.70;2.08;;;;;;;;;;2078583;28;20427;-66
2022/03/08 07:37:42;;;;;;;22.10;3.40;;;;;;;;;;2078540;28;20484;-67
2022/03/08 07:39:03;;;;;;;30.55;3.65;;;;;;;;;;2078809;28;20031;-68
2022/03/08 07:40:22;;;;;;;8.23;2.30;;;;;;;;;;2078959;28;20064;-65
2022/03/08 07:41:41;;;;;;;9.70;2.95;;;;;;;;;;2079157;28;20025;-67
2022/03/08 07:43:02;;;;;;;14.82;3.08;;;;;;;;;;2079341;28;20226;-67
2022/03/08 07:44:21;;;;;;;16.90;3.47;;;;;;;;;;2079187;28;20096;-67
2022/03/08 07:45:40;;;;;;;19.30;3.03;;;;;;;;;;2079708;28;20025;-66
2022/03/08 07:46:59;;;;;;;9.63;2.97;;;;;;;;;;2078909;28;20539;-67
2022/03/08 07:48:18;;;;;;;11.20;2.38;;;;;;;;;;2074732;28;20539;-67
2022/03/08 07:49:37;;;;;;;6.20;2.72;;;;;;;;;;2078710;28;20069;-67
2022/03/08 07:50:56;;;;;;;16.35;2.63;;;;;;;;;;2079131;28;20477;-66
2022/03/08 07:52:15;;;;;;;14.02;2.78;;;;;;;;;;2078978;28;20477;-67
2022/03/08 07:53:35;;;;;;;6.45;2.20;;;;;;;;;;2072682;28;20041;-66
2022/03/08 07:54:54;;;;;;;15.13;2.88;;;;;;;;;;2078457;28;20029;-66